createdAt,value
2019-01-16T06:40:25.520Z,4.13
2019-01-16T06:42:58.179Z,3.90
2019-01-16T06:45:30.843Z,4.20
2019-01-16T06:48:03.891Z,3.70
2019-01-16T06:50:36.889Z,4.07
2019-01-16T06:53:09.581Z,4.20
2019-01-16T06:55:42.234Z,4.43
2019-01-16T06:58:14.915Z,4.00
2019-01-16T07:00:47.850Z,3.83
2019-01-16T07:03:20.526Z,3.43
2019-01-16T07:05:53.171Z,3.87
2019-01-16T07:08:25.859Z,3.73
2019-01-16T07:10:58.512Z,3.43
2019-01-16T07:13:31.188Z,4.00
2019-01-16T07:16:04.255Z,3.90
2019-01-16T07:18:36.930Z,3.50
2019-01-16T07:21:09.595Z,3.40
2019-01-16T07:23:42.287Z,3.63
2019-01-16T07:26:14.976Z,3.93
2019-01-16T07:28:47.983Z,3.70
2019-01-16T07:31:20.636Z,3.70
2019-01-16T07:33:53.395Z,3.73
2019-01-16T07:36:26.055Z,3.90
2019-01-16T07:38:58.723Z,4.40
2019-01-16T07:41:31.369Z,4.30
2019-01-16T07:44:04.435Z,4.53
2019-01-16T07:46:37.091Z,4.63
2019-01-16T07:49:09.767Z,4.60
2019-01-16T07:51:42.412Z,5.30
2019-01-16T07:54:15.092Z,4.93
2019-01-16T07:56:47.755Z,4.73
2019-01-16T07:59:21.925Z,5.20
2019-01-16T08:01:54.935Z,5.27
2019-01-16T08:04:27.616Z,5.20
2019-01-16T08:07:00.620Z,5.47
2019-01-16T08:09:33.871Z,5.63
2019-01-16T08:12:06.528Z,6.70
2019-01-16T08:14:39.531Z,6.87
2019-01-16T08:17:12.183Z,7.00
2019-01-16T08:19:44.868Z,6.70
2019-01-16T08:22:17.595Z,6.97
2019-01-16T08:24:51.066Z,7.33
2019-01-16T08:27:23.743Z,7.47
2019-01-16T08:29:56.650Z,7.80
2019-01-16T08:32:29.314Z,8.67
2019-01-16T08:35:02.343Z,8.40
2019-01-16T08:37:35.020Z,8.93
2019-01-16T08:40:08.097Z,8.23
2019-01-16T08:42:40.797Z,8.67
2019-01-16T08:45:13.478Z,9.20
2019-01-16T08:47:46.503Z,9.33
2019-01-16T08:50:19.188Z,9.40
2019-01-16T08:52:51.839Z,8.90
2019-01-16T08:55:24.527Z,8.97
2019-01-16T08:57:57.426Z,9.27
2019-01-16T09:00:30.383Z,8.57
2019-01-16T09:03:03.072Z,9.17
2019-01-16T09:05:35.744Z,8.57
2019-01-16T09:08:08.411Z,8.80
2019-01-16T09:10:41.104Z,8.33
2019-01-16T09:13:13.771Z,7.77
2019-01-16T09:15:46.479Z,8.20
2019-01-16T09:18:19.135Z,8.50
2019-01-16T09:20:51.799Z,7.67
2019-01-16T09:23:24.450Z,7.97
2019-01-16T09:25:57.123Z,7.87
2019-01-16T09:28:32.316Z,8.37
2019-01-16T09:31:05.247Z,8.37
2019-01-16T09:33:37.915Z,9.40
2019-01-16T09:36:10.594Z,9.00
2019-01-16T09:38:43.251Z,8.67
2019-01-16T09:41:15.933Z,9.07
2019-01-16T09:43:48.603Z,9.20
2019-01-16T09:46:21.287Z,9.53
2019-01-16T09:48:53.946Z,10.13
2019-01-16T09:51:26.683Z,9.80
2019-01-16T09:54:08.075Z,10.33
2019-01-16T09:56:40.742Z,10.03
2019-01-16T09:59:13.423Z,10.70
2019-01-16T10:01:46.119Z,9.70
2019-01-16T10:04:18.779Z,9.83
2019-01-16T10:06:51.459Z,9.53
2019-01-16T10:09:24.130Z,10.53
2019-01-16T10:11:57.126Z,9.30
2019-01-16T10:14:30.946Z,9.47
2019-01-16T10:17:03.627Z,9.30
2019-01-16T10:19:36.363Z,8.87
2019-01-16T10:22:09.033Z,7.97
2019-01-16T10:24:41.687Z,7.80
2019-01-16T10:27:14.372Z,8.43
2019-01-16T10:29:47.030Z,7.80
2019-01-16T10:32:19.716Z,7.50
2019-01-16T10:34:52.367Z,8.70
2019-01-16T10:37:25.069Z,7.80
2019-01-16T10:39:57.710Z,8.50
2019-01-16T10:42:30.376Z,8.80
2019-01-16T10:45:03.847Z,8.20
2019-01-16T10:47:36.594Z,7.63
2019-01-16T10:50:10.352Z,7.37
2019-01-16T10:52:43.027Z,7.07
2019-01-16T10:55:15.683Z,7.13
2019-01-16T10:57:48.351Z,6.80
2019-01-16T11:00:20.999Z,7.60
2019-01-16T11:02:53.678Z,7.17
2019-01-16T11:05:26.343Z,8.90
2019-01-16T11:07:59.015Z,7.63
2019-01-16T11:10:31.666Z,13.97
2019-01-16T11:13:04.647Z,9.93
2019-01-16T11:15:37.313Z,16.33
2019-01-16T11:18:09.984Z,13.83
2019-01-16T11:20:42.643Z,11.57
2019-01-16T11:23:15.326Z,8.37
2019-01-16T11:25:48.285Z,11.13
2019-01-16T11:28:20.962Z,9.47
2019-01-16T11:30:53.870Z,8.93
2019-01-16T11:33:26.593Z,9.17
2019-01-16T11:35:59.241Z,8.33
2019-01-16T11:38:31.918Z,7.53
2019-01-16T11:41:04.611Z,7.27
2019-01-16T11:43:37.663Z,7.40
2019-01-16T11:46:10.360Z,7.90
2019-01-16T11:48:43.040Z,7.00
2019-01-16T11:51:18.874Z,7.80
2019-01-16T11:53:50.142Z,7.07
2019-01-16T11:56:22.791Z,6.53
2019-01-16T11:58:55.467Z,6.53
2019-01-16T12:01:28.367Z,6.90
2019-01-16T12:04:01.072Z,6.43
2019-01-16T12:06:33.725Z,6.40
2019-01-16T12:09:14.393Z,6.50
2019-01-16T12:11:47.062Z,6.93
2019-01-16T12:14:19.783Z,6.77
2019-01-16T12:16:52.453Z,6.30
2019-01-16T12:19:25.119Z,7.27
2019-01-16T12:21:57.795Z,6.43
2019-01-16T12:24:30.473Z,6.87
2019-01-16T12:27:03.126Z,6.83
2019-01-16T12:29:36.131Z,6.50
2019-01-16T12:32:08.827Z,6.73
2019-01-16T12:34:41.506Z,6.53
2019-01-16T12:37:14.170Z,6.47
2019-01-16T12:39:46.873Z,5.90
2019-01-16T12:42:19.803Z,6.10
2019-01-16T12:44:52.462Z,6.03
2019-01-16T12:47:25.122Z,6.10
2019-01-16T12:49:58.621Z,5.97
2019-01-16T12:52:31.366Z,5.80
2019-01-16T12:55:04.611Z,6.00
2019-01-16T12:57:37.275Z,5.73
2019-01-16T13:00:11.707Z,5.87
2019-01-16T13:02:44.375Z,5.93
2019-01-16T13:05:17.237Z,5.80
2019-01-16T13:07:49.901Z,5.63
2019-01-16T13:10:22.573Z,5.50
2019-01-16T13:12:55.236Z,5.43
2019-01-16T13:15:27.946Z,4.73
2019-01-16T13:18:00.609Z,5.60
2019-01-16T13:20:33.323Z,5.60
2019-01-16T13:23:05.967Z,6.17
2019-01-16T13:25:38.768Z,4.83
2019-01-16T13:28:11.703Z,5.20
2019-01-16T13:30:44.383Z,5.30
2019-01-16T13:33:17.041Z,6.53
2019-01-16T13:35:49.712Z,5.07
2019-01-16T13:38:22.371Z,4.97
2019-01-16T13:40:55.039Z,4.53
2019-01-16T13:43:27.700Z,4.80
2019-01-16T13:46:00.379Z,5.30
2019-01-16T13:48:33.037Z,5.03
2019-01-16T13:51:05.715Z,5.13
2019-01-16T13:53:38.419Z,4.60
2019-01-16T13:56:11.105Z,4.90
2019-01-16T13:58:44.138Z,4.63
2019-01-16T14:01:16.855Z,4.47
2019-01-16T14:03:49.519Z,5.10
2019-01-16T14:06:22.203Z,4.30
2019-01-16T14:08:55.140Z,4.60
2019-01-16T14:11:28.191Z,4.37
2019-01-16T14:14:00.911Z,4.63
2019-01-16T14:16:33.610Z,4.47
2019-01-16T14:19:06.266Z,4.63
2019-01-16T14:21:39.210Z,4.50
2019-01-16T14:24:11.862Z,4.53
2019-01-16T14:26:44.526Z,4.40
2019-01-16T14:29:17.437Z,4.50
2019-01-16T14:31:50.118Z,3.90
2019-01-16T14:34:22.819Z,4.50
2019-01-16T14:36:55.507Z,4.60
2019-01-16T14:39:28.455Z,4.47
2019-01-16T14:42:01.143Z,4.63
2019-01-16T14:44:33.804Z,4.97
2019-01-16T14:47:06.462Z,5.47
2019-01-16T14:49:39.119Z,4.70
2019-01-16T14:52:11.787Z,4.67
2019-01-16T14:54:44.735Z,4.80
2019-01-16T14:57:18.471Z,4.83
2019-01-16T14:59:51.451Z,4.60
2019-01-16T15:02:24.194Z,4.40
2019-01-16T15:04:56.918Z,4.33
2019-01-16T15:07:29.598Z,5.17
2019-01-16T15:10:02.251Z,5.13
2019-01-16T15:12:34.998Z,4.87
2019-01-16T15:15:07.685Z,4.73
2019-01-16T15:17:40.334Z,4.50
2019-01-16T15:20:13.039Z,4.43
2019-01-16T15:22:45.694Z,4.73
2019-01-16T15:25:18.340Z,4.90
2019-01-16T15:27:51.134Z,4.93
2019-01-16T15:30:23.794Z,4.10
2019-01-16T15:32:56.481Z,4.47
2019-01-16T15:35:29.468Z,4.20
2019-01-16T15:38:02.263Z,4.30
2019-01-16T15:40:34.931Z,4.80
2019-01-16T15:43:07.634Z,4.40
2019-01-16T15:45:40.290Z,4.33
2019-01-16T15:48:12.956Z,4.50
2019-01-16T15:50:45.610Z,4.17
2019-01-16T15:53:18.627Z,4.70
2019-01-16T15:55:51.283Z,4.40
2019-01-16T15:58:23.963Z,4.60
2019-01-16T16:00:56.677Z,4.33
2019-01-16T16:03:29.375Z,4.70
2019-01-16T16:06:02.139Z,4.43
2019-01-16T16:08:34.926Z,4.90
2019-01-16T16:11:07.587Z,5.10
2019-01-16T16:13:40.266Z,4.67
2019-01-16T16:16:12.920Z,4.47
2019-01-16T16:18:46.502Z,4.70
2019-01-16T16:21:19.155Z,4.33
2019-01-16T16:23:51.835Z,4.43
2019-01-16T16:26:24.501Z,4.67
2019-01-16T16:28:57.468Z,4.63
2019-01-16T16:31:30.121Z,4.80
2019-01-16T16:34:03.115Z,4.47
2019-01-16T16:36:35.842Z,4.73
2019-01-16T16:39:08.743Z,4.97
2019-01-16T16:41:41.401Z,4.93
2019-01-16T16:44:14.062Z,4.57
2019-01-16T16:46:46.710Z,4.97
2019-01-16T16:49:19.675Z,4.70
2019-01-16T16:51:52.437Z,5.30
2019-01-16T16:54:25.494Z,4.77
2019-01-16T16:56:58.152Z,5.23
2019-01-16T16:59:31.143Z,5.40
2019-01-16T17:02:04.079Z,4.80
2019-01-16T17:04:36.760Z,5.03
2019-01-16T17:07:09.767Z,5.43
2019-01-16T17:09:42.455Z,5.47
2019-01-16T17:12:15.411Z,6.10
2019-01-16T17:14:48.102Z,5.60
2019-01-16T17:17:20.834Z,5.77
2019-01-16T17:19:53.567Z,5.00
2019-01-16T17:22:32.248Z,5.20
2019-01-16T17:25:00.927Z,5.03
2019-01-16T17:27:33.566Z,5.07
2019-01-16T17:30:09.482Z,5.53
2019-01-16T17:32:42.124Z,5.40
2019-01-16T17:35:14.782Z,5.17
2019-01-16T17:37:47.451Z,5.40
2019-01-16T17:40:20.457Z,5.17
2019-01-16T17:42:53.410Z,5.80
2019-01-16T17:45:26.342Z,5.70
2019-01-16T17:47:59.372Z,5.93
2019-01-16T17:50:32.039Z,5.53
2019-01-16T17:53:04.699Z,5.10
2019-01-16T17:55:37.366Z,6.03
2019-01-16T17:58:10.042Z,5.97
2019-01-16T18:00:42.995Z,5.93
2019-01-16T18:03:15.658Z,5.67
2019-01-16T18:05:48.339Z,5.50
2019-01-16T18:08:21.317Z,6.50
2019-01-16T18:10:54.086Z,5.50
2019-01-16T18:13:26.737Z,5.83
2019-01-16T18:15:59.448Z,5.60
2019-01-16T18:18:32.132Z,6.03
2019-01-16T18:21:04.843Z,6.47
2019-01-16T18:23:38.039Z,6.40
2019-01-16T18:26:10.773Z,5.97
2019-01-16T18:28:43.543Z,6.90
2019-01-16T18:31:16.214Z,6.47
2019-01-16T18:33:48.950Z,6.60
2019-01-16T18:36:21.711Z,6.67
2019-01-16T18:38:54.402Z,6.90
2019-01-16T18:41:27.111Z,6.73
2019-01-16T18:43:59.779Z,7.30
2019-01-16T18:46:32.488Z,6.43
2019-01-16T18:49:05.416Z,7.13
2019-01-16T18:51:38.358Z,7.43
2019-01-16T18:54:11.319Z,6.33
2019-01-16T18:56:44.287Z,7.67
2019-01-16T18:59:17.819Z,6.77
2019-01-16T19:01:50.899Z,8.13
2019-01-16T19:04:23.566Z,6.77
2019-01-16T19:06:56.554Z,7.47
2019-01-16T19:09:29.207Z,7.33
2019-01-16T19:12:01.882Z,7.53
2019-01-16T19:14:34.534Z,7.27
2019-01-16T19:17:07.242Z,7.17
2019-01-16T19:19:39.972Z,7.30
2019-01-16T19:22:12.639Z,8.00
2019-01-16T19:24:45.322Z,10.37
2019-01-16T19:27:18.019Z,10.87
2019-01-16T19:29:50.728Z,7.63
2019-01-16T19:32:23.414Z,6.87
2019-01-16T19:34:56.074Z,7.63
2019-01-16T19:37:28.775Z,8.20
2019-01-16T19:40:01.747Z,7.67
2019-01-16T19:42:36.250Z,7.80
2019-01-16T19:45:09.775Z,7.60
2019-01-16T19:47:42.498Z,6.50
2019-01-16T19:50:15.187Z,6.97
2019-01-16T19:52:47.855Z,7.00
2019-01-16T19:55:20.547Z,7.33
2019-01-16T19:57:53.811Z,6.63
2019-01-16T20:00:26.470Z,6.90
2019-01-16T20:02:59.160Z,7.73
